Wetterdaten: Woche 27.02.12 - 04.03.12 (KW9)
Datum Zeit Temp. A. Feuchte A. Luftdruck Regen Wind Richtung Taupunkt Windchill Windben
27.02.2012 00:00 1,1 C 67 % 1022,8 hPa 0,0 l/m 9,9 km/h N -4,3 C -2,2 C 21,3 km/h
27.02.2012 01:00 0,6 C 66 % 1023,2 hPa 0,0 l/m 9,5 km/h NW -5,0 C -2,3 C 20,9 km/h
27.02.2012 02:00 0,5 C 67 % 1023,3 hPa 0,0 l/m 9,8 km/h W-NW -4,9 C -2,6 C 20,1 km/h
27.02.2012 03:00 0,3 C 68 % 1023,3 hPa 0,0 l/m 7,3 km/h N -4,9 C -0,7 C 19,3 km/h
27.02.2012 04:00 -0,2 C 69 % 1023,6 hPa 0,0 l/m 5,1 km/h N -5,2 C -0,2 C 14,5 km/h
27.02.2012 05:00 -0,2 C 71 % 1023,8 hPa 0,0 l/m 7,6 km/h N -4,7 C -1,6 C 18,9 km/h
27.02.2012 06:00 -0,0 C 70 % 1024,2 hPa 0,0 l/m 9,8 km/h W-NW -4,8 C -3,3 C 22,1 km/h
27.02.2012 07:00 0,1 C 68 % 1024,6 hPa 0,0 l/m 9,0 km/h N -5,1 C -2,4 C 20,5 km/h
27.02.2012 08:00 1,3 C 66 % 1024,5 hPa 0,0 l/m 10,1 km/h N -4,3 C -2,0 C 22,9 km/h
27.02.2012 09:00 2,9 C 61 % 1024,4 hPa 0,0 l/m 11,8 km/h N -4,0 C -1,6 C 23,7 km/h
27.02.2012 10:00 3,8 C 54 % 1024,4 hPa 0,0 l/m 16,4 km/h N -4,6 C -3,0 C 32,6 km/h
27.02.2012 11:00 4,5 C 45 % 1024,3 hPa 0,0 l/m 18,5 km/h N -6,5 C -3,1 C 37,0 km/h
27.02.2012 12:00 5,2 C 42 % 1023,8 hPa 0,0 l/m 18,3 km/h N -6,8 C -2,1 C 39,0 km/h
27.02.2012 13:00 5,8 C 42 % 1023,1 hPa 0,0 l/m 16,4 km/h N -6,2 C -0,6 C 32,6 km/h
27.02.2012 14:00 5,9 C 40 % 1022,3 hPa 0,0 l/m 16,1 km/h N -6,6 C -0,3 C 32,6 km/h
27.02.2012 15:00 5,9 C 41 % 1021,8 hPa 0,0 l/m 15,4 km/h N -6,4 C -0,0 C 30,6 km/h
27.02.2012 16:00 5,6 C 45 % 1021,8 hPa 0,0 l/m 16,7 km/h N -5,5 C -1,1 C 33,4 km/h
27.02.2012 17:00 4,4 C 49 % 1022,3 hPa 0,0 l/m 13,0 km/h N -5,3 C -0,4 C 27,8 km/h
27.02.2012 18:00 4,0 C 53 % 1022,9 hPa 0,0 l/m 7,9 km/h W-NW -4,9 C 2,7 C 19,3 km/h
27.02.2012 19:00 3,5 C 55 % 1023,0 hPa 0,0 l/m 6,0 km/h W-NW -4,8 C 3,4 C 14,9 km/h
27.02.2012 20:00 3,2 C 60 % 1023,0 hPa 0,0 l/m 2,7 km/h NW -3,9 C 3,2 C 7,2 km/h
27.02.2012 21:00 3,8 C 63 % 1023,1 hPa 0,0 l/m 6,7 km/h N -2,6 C 2,6 C 18,5 km/h
27.02.2012 22:00 3,8 C 66 % 1023,4 hPa 0,0 l/m 5,8 km/h N -1,9 C 3,2 C 14,5 km/h
27.02.2012 23:00 2,8 C 76 % 1023,3 hPa 0,0 l/m 2,7 km/h N -1,0 C 2,8 C 8,9 km/h
28.02.2012 00:00 2,3 C 81 % 1023,0 hPa 0,0 l/m 0,9 km/h W-NW -0,7 C 2,3 C 6,0 km/h
28.02.2012 01:00 3,3 C 77 % 1022,8 hPa 0,0 l/m 5,3 km/h N -0,3 C 3,2 C 15,3 km/h
28.02.2012 02:00 3,6 C 76 % 1021,8 hPa 0,3 l/m 9,3 km/h N -0,2 C 1,2 C 23,3 km/h
28.02.2012 03:00 3,6 C 77 % 1021,2 hPa 0,0 l/m 10,0 km/h N 0,0 C 0,7 C 23,3 km/h
28.02.2012 04:00 4,1 C 76 % 1020,7 hPa 0,0 l/m 13,6 km/h N 0,3 C -1,2 C 29,8 km/h
28.02.2012 05:00 4,5 C 74 % 1020,2 hPa 0,0 l/m 12,0 km/h N 0,3 C 0,2 C 31,0 km/h
28.02.2012 06:00 4,9 C 72 % 1020,2 hPa 0,0 l/m 13,8 km/h N 0,2 C -0,4 C 35,0 km/h
28.02.2012 07:00 4,9 C 73 % 1020,5 hPa 0,0 l/m 14,0 km/h N 0,4 C -0,5 C 29,4 km/h
28.02.2012 08:00 4,4 C 79 % 1020,9 hPa 0,3 l/m 11,1 km/h N 1,0 C 0,6 C 24,9 km/h
28.02.2012 09:00 4,3 C 81 % 1020,5 hPa 0,3 l/m 13,2 km/h N 1,4 C -0,7 C 27,4 km/h
28.02.2012 10:00 5,0 C 80 % 1020,0 hPa 0,0 l/m 12,5 km/h N 1,8 C 0,5 C 29,0 km/h
28.02.2012 11:00 5,2 C 80 % 1019,7 hPa 0,3 l/m 16,6 km/h N 2,0 C -1,4 C 36,6 km/h
28.02.2012 12:00 5,4 C 81 % 1019,1 hPa 0,3 l/m 14,5 km/h N 2,3 C -0,2 C 33,0 km/h
28.02.2012 13:00 5,7 C 80 % 1018,5 hPa 0,8 l/m 17,9 km/h N 2,6 C -1,4 C 37,4 km/h
28.02.2012 14:00 5,6 C 82 % 1017,7 hPa 0,3 l/m 15,9 km/h N 2,7 C -0,6 C 36,6 km/h
28.02.2012 15:00 6,0 C 80 % 1017,0 hPa 0,3 l/m 17,9 km/h N 2,9 C -1,0 C 35,0 km/h
28.02.2012 16:00 6,0 C 80 % 1016,7 hPa 0,3 l/m 18,9 km/h N 2,8 C -1,4 C 37,0 km/h
28.02.2012 17:00 5,7 C 82 % 1016,6 hPa 2,9 l/m 18,5 km/h N 2,9 C -1,6 C 37,8 km/h
28.02.2012 18:00 5,8 C 82 % 1015,4 hPa 1,3 l/m 19,0 km/h N 3,0 C -1,7 C 44,7 km/h
28.02.2012 19:00 6,7 C 79 % 1013,3 hPa 0,3 l/m 27,5 km/h N 3,4 C -3,2 C 51,1 km/h
28.02.2012 20:00 7,3 C 78 % 1012,8 hPa 0,0 l/m 32,6 km/h N 3,8 C -3,7 C 62,0 km/h
28.02.2012 21:00 7,4 C 81 % 1013,2 hPa 0,5 l/m 29,6 km/h N 4,3 C -2,9 C 56,3 km/h
28.02.2012 22:00 7,9 C 80 % 1013,4 hPa 0,0 l/m 27,2 km/h N 4,6 C -1,6 C 56,7 km/h
28.02.2012 23:00 8,1 C 80 % 1013,3 hPa 0,0 l/m 27,1 km/h N 4,9 C -1,3 C 54,3 km/h
29.02.2012 00:00 8,5 C 79 % 1013,3 hPa 0,3 l/m 27,6 km/h N 5,0 C -0,9 C 59,5 km/h
29.02.2012 01:00 8,4 C 80 % 1013,8 hPa 0,0 l/m 27,1 km/h N 5,2 C -0,8 C 56,7 km/h
29.02.2012 02:00 8,4 C 81 % 1013,5 hPa 0,3 l/m 27,4 km/h N 5,4 C -0,9 C 56,3 km/h
29.02.2012 03:00 9,1 C 78 % 1014,0 hPa 0,0 l/m 27,5 km/h N 5,5 C -0,1 C 55,1 km/h
29.02.2012 04:00 9,1 C 79 % 1014,6 hPa 0,0 l/m 28,0 km/h N 5,6 C -0,1 C 51,9 km/h
29.02.2012 05:00 8,5 C 82 % 1015,3 hPa 0,0 l/m 26,7 km/h N 5,6 C -0,7 C 51,9 km/h
29.02.2012 06:00 8,3 C 83 % 1016,3 hPa 0,3 l/m 24,0 km/h N 5,6 C -0,1 C 46,7 km/h
29.02.2012 07:00 8,4 C 83 % 1017,0 hPa 0,3 l/m 21,3 km/h N 5,7 C 0,8 C 43,9 km/h
29.02.2012 08:00 8,5 C 83 % 1017,7 hPa 0,0 l/m 20,1 km/h N 5,8 C 1,3 C 43,0 km/h
29.02.2012 09:00 8,9 C 83 % 1018,2 hPa 0,0 l/m 19,8 km/h N 6,2 C 2,0 C 41,4 km/h
29.02.2012 10:00 9,8 C 81 % 1018,5 hPa 0,0 l/m 20,6 km/h N 6,7 C 2,8 C 38,6 km/h
29.02.2012 11:00 10,0 C 79 % 1019,2 hPa 0,0 l/m 17,5 km/h N 6,5 C 4,1 C 33,4 km/h
29.02.2012 12:00 10,2 C 78 % 1019,3 hPa 0,0 l/m 18,9 km/h N 6,5 C 3,9 C 36,2 km/h
29.02.2012 13:00 10,3 C 78 % 1019,7 hPa 0,0 l/m 16,5 km/h N 6,5 C 4,9 C 35,4 km/h
29.02.2012 14:00 10,3 C 78 % 1019,8 hPa 0,0 l/m 16,9 km/h N 6,5 C 4,8 C 34,2 km/h
29.02.2012 15:00 9,9 C 79 % 1020,0 hPa 0,0 l/m 15,5 km/h N 6,4 C 4,8 C 30,6 km/h
29.02.2012 16:00 9,9 C 79 % 1020,3 hPa 0,0 l/m 13,8 km/h N 6,4 C 5,5 C 28,2 km/h
29.02.2012 17:00 9,7 C 80 % 1020,9 hPa 0,0 l/m 10,5 km/h N 6,4 C 7,0 C 23,3 km/h
29.02.2012 18:00 9,6 C 80 % 1021,6 hPa 0,0 l/m 7,9 km/h N 6,3 C 8,5 C 22,9 km/h
29.02.2012 19:00 9,4 C 81 % 1022,0 hPa 0,0 l/m 6,0 km/h N 6,4 C 9,2 C 17,3 km/h
29.02.2012 20:00 9,3 C 82 % 1022,2 hPa 0,0 l/m 5,6 km/h N 6,3 C 9,3 C 14,9 km/h
29.02.2012 21:00 9,1 C 83 % 1022,6 hPa 0,0 l/m 5,3 km/h N 6,3 C 9,1 C 14,9 km/h
29.02.2012 22:00 9,3 C 83 % 1022,6 hPa 0,0 l/m 5,4 km/h N 6,5 C 9,1 C 13,3 km/h
29.02.2012 23:00 9,3 C 83 % 1022,9 hPa 0,0 l/m 3,7 km/h N 6,5 C 9,3 C 10,9 km/h
01.03.2012 00:00 8,9 C 83 % 1023,3 hPa 0,0 l/m 2,1 km/h N 6,1 C 8,9 C 7,6 km/h
01.03.2012 01:00 8,6 C 82 % 1023,3 hPa 0,3 l/m 2,0 km/h N 5,7 C 8,6 C 7,2 km/h
01.03.2012 02:00 8,6 C 81 % 1023,1 hPa 0,0 l/m 3,5 km/h N 5,5 C 8,6 C 9,7 km/h
01.03.2012 03:00 8,9 C 81 % 1022,8 hPa 0,0 l/m 6,5 km/h N 5,9 C 8,6 C 16,9 km/h
01.03.2012 04:00 9,5 C 84 % 1023,0 hPa 0,0 l/m 10,5 km/h N 6,9 C 6,8 C 22,1 km/h
01.03.2012 05:00 9,7 C 83 % 1022,9 hPa 0,0 l/m 9,4 km/h N 7,0 C 7,6 C 20,1 km/h
01.03.2012 06:00 9,6 C 83 % 1023,3 hPa 0,0 l/m 7,0 km/h N 6,9 C 9,1 C 17,3 km/h
01.03.2012 07:00 9,8 C 83 % 1023,8 hPa 0,0 l/m 8,5 km/h N 7,1 C 8,4 C 19,7 km/h
01.03.2012 08:00 10,3 C 83 % 1024,0 hPa 0,0 l/m 3,9 km/h N 7,5 C 10,3 C 12,1 km/h
01.03.2012 09:00 10,8 C 81 % 1024,4 hPa 0,0 l/m 5,6 km/h N 7,7 C 10,7 C 15,7 km/h
01.03.2012 10:00 11,5 C 79 % 1024,7 hPa 0,0 l/m 6,4 km/h N 8,1 C 11,3 C 15,3 km/h
01.03.2012 11:00 12,6 C 76 % 1024,7 hPa 0,0 l/m 4,6 km/h N 8,4 C 12,6 C 11,3 km/h
01.03.2012 12:00 13,6 C 72 % 1024,1 hPa 0,0 l/m 4,1 km/h N 8,6 C 13,6 C 10,9 km/h
01.03.2012 13:00 14,2 C 67 % 1023,7 hPa 0,0 l/m 5,0 km/h N 8,0 C 14,2 C 13,3 km/h
01.03.2012 14:00 14,6 C 63 % 1023,3 hPa 0,0 l/m 4,7 km/h N 7,6 C 14,6 C 13,3 km/h
01.03.2012 15:00 14,7 C 63 % 1023,0 hPa 0,0 l/m 3,9 km/h N 7,8 C 14,7 C 10,1 km/h
01.03.2012 16:00 14,8 C 63 % 1022,9 hPa 0,0 l/m 2,8 km/h N 7,9 C 14,8 C 8,8 km/h
01.03.2012 17:00 14,3 C 66 % 1022,8 hPa 0,0 l/m 0,0 km/h N 7,9 C 14,3 C 0,0 km/h
01.03.2012 18:00 13,2 C 71 % 1023,0 hPa 0,0 l/m 0,0 km/h N 8,0 C 13,2 C 0,0 km/h
01.03.2012 19:00 12,0 C 75 % 1022,9 hPa 0,0 l/m 0,0 km/h N 7,8 C 12,0 C 0,4 km/h
01.03.2012 20:00 10,1 C 77 % 1022,7 hPa 0,0 l/m 0,0 km/h N 6,2 C 10,1 C 0,0 km/h
01.03.2012 21:00 8,2 C 82 % 1022,7 hPa 0,0 l/m 0,0 km/h N 5,3 C 8,2 C 0,0 km/h
01.03.2012 22:00 9,4 C 83 % 1022,3 hPa 0,0 l/m 1,4 km/h N 6,6 C 9,4 C 6,8 km/h
01.03.2012 23:00 11,8 C 81 % 1022,1 hPa 0,0 l/m 3,6 km/h N 8,5 C 11,8 C 12,1 km/h
02.03.2012 00:00 12,5 C 77 % 1021,9 hPa 0,0 l/m 7,9 km/h N 8,5 C 11,5 C 19,7 km/h
02.03.2012 01:00 11,9 C 78 % 1021,9 hPa 0,0 l/m 6,5 km/h N 8,1 C 11,4 C 14,9 km/h
02.03.2012 02:00 11,7 C 77 % 1021,7 hPa 0,0 l/m 10,7 km/h N 7,9 C 9,2 C 23,3 km/h
02.03.2012 03:00 11,2 C 79 % 1021,7 hPa 0,0 l/m 12,7 km/h N 7,7 C 7,7 C 26,5 km/h
02.03.2012 04:00 10,8 C 79 % 1021,9 hPa 0,0 l/m 11,4 km/h N 7,4 C 7,8 C 24,9 km/h
02.03.2012 05:00 9,8 C 81 % 1022,5 hPa 0,0 l/m 7,2 km/h N 6,7 C 9,0 C 17,7 km/h
02.03.2012 06:00 9,0 C 83 % 1022,9 hPa 0,0 l/m 7,8 km/h N 6,2 C 8,0 C 18,9 km/h
02.03.2012 07:00 8,6 C 83 % 1023,3 hPa 0,0 l/m 7,0 km/h N 5,9 C 8,1 C 15,7 km/h
02.03.2012 08:00 9,2 C 83 % 1023,2 hPa 0,0 l/m 8,8 km/h N 6,4 C 7,5 C 19,3 km/h
02.03.2012 09:00 10,9 C 77 % 1023,4 hPa 0,0 l/m 11,7 km/h N 7,1 C 7,7 C 22,9 km/h
02.03.2012 10:00 11,7 C 73 % 1023,2 hPa 0,0 l/m 15,2 km/h N 7,0 C 7,1 C 29,0 km/h
02.03.2012 11:00 12,4 C 68 % 1023,1 hPa 0,0 l/m 15,8 km/h N 6,5 C 7,7 C 30,2 km/h
02.03.2012 12:00 13,7 C 59 % 1022,8 hPa 0,0 l/m 16,2 km/h N 5,7 C 9,2 C 33,4 km/h
02.03.2012 13:00 15,1 C 55 % 1022,7 hPa 0,0 l/m 15,0 km/h N 6,1 C 11,2 C 29,0 km/h
02.03.2012 14:00 15,4 C 55 % 1022,3 hPa 0,0 l/m 12,9 km/h N 6,5 C 12,4 C 27,7 km/h
02.03.2012 15:00 15,2 C 55 % 1022,1 hPa 0,0 l/m 12,6 km/h N 6,3 C 12,3 C 26,2 km/h
02.03.2012 16:00 14,9 C 56 % 1022,2 hPa 0,0 l/m 9,3 km/h N 6,2 C 13,3 C 20,1 km/h
02.03.2012 17:00 11,8 C 63 % 1023,5 hPa 0,0 l/m 9,7 km/h N 4,9 C 9,7 C 22,1 km/h
02.03.2012 18:00 9,4 C 67 % 1024,5 hPa 0,0 l/m 8,4 km/h N 3,6 C 8,0 C 20,1 km/h
02.03.2012 19:00 8,2 C 70 % 1025,0 hPa 0,0 l/m 6,9 km/h N 2,9 C 7,6 C 20,5 km/h
02.03.2012 20:00 7,2 C 72 % 1025,4 hPa 0,0 l/m 3,7 km/h N 2,5 C 7,2 C 12,1 km/h
02.03.2012 21:00 6,8 C 74 % 1025,6 hPa 0,0 l/m 5,8 km/h N 2,4 C 6,6 C 13,3 km/h
02.03.2012 22:00 6,5 C 74 % 1025,8 hPa 0,0 l/m 5,4 km/h N 2,3 C 6,5 C 12,9 km/h
02.03.2012 23:00 6,0 C 76 % 1026,2 hPa 0,0 l/m 5,0 km/h N 2,1 C 6,0 C 12,1 km/h
03.03.2012 00:00 5,5 C 77 % 1026,2 hPa 0,0 l/m 2,8 km/h N 1,7 C 5,5 C 8,4 km/h
03.03.2012 01:00 4,9 C 79 % 1026,2 hPa 0,0 l/m 3,3 km/h N 1,6 C 4,9 C 9,3 km/h
03.03.2012 02:00 4,9 C 79 % 1026,1 hPa 0,0 l/m 5,4 km/h N 1,6 C 4,9 C 12,1 km/h
03.03.2012 03:00 4,9 C 79 % 1026,1 hPa 0,0 l/m 4,4 km/h N 1,5 C 4,9 C 11,7 km/h
03.03.2012 04:00 4,6 C 77 % 1026,4 hPa 0,0 l/m 4,1 km/h N 0,9 C 4,6 C 9,7 km/h
03.03.2012 05:00 3,9 C 73 % 1026,7 hPa 0,0 l/m 1,3 km/h N -0,5 C 3,9 C 5,2 km/h
03.03.2012 06:00 2,7 C 74 % 1027,1 hPa 0,0 l/m 0,7 km/h N -1,4 C 2,7 C 5,2 km/h
03.03.2012 07:00 2,4 C 77 % 1027,5 hPa 0,0 l/m 0,8 km/h N -1,2 C 2,4 C 4,8 km/h
03.03.2012 08:00 4,1 C 69 % 1027,8 hPa 0,0 l/m 5,1 km/h N -1,2 C 4,0 C 12,1 km/h
03.03.2012 09:00 5,6 C 48 % 1027,9 hPa 0,0 l/m 6,6 km/h N -4,4 C 5,4 C 16,1 km/h
03.03.2012 10:00 7,1 C 44 % 1027,8 hPa 0,0 l/m 5,4 km/h N -4,4 C 7,1 C 14,1 km/h
03.03.2012 11:00 7,6 C 39 % 1027,4 hPa 0,0 l/m 5,1 km/h N -5,6 C 7,6 C 13,7 km/h
03.03.2012 12:00 8,6 C 36 % 1026,9 hPa 0,0 l/m 5,3 km/h N -5,7 C 8,6 C 15,3 km/h
03.03.2012 13:00 9,3 C 33 % 1026,5 hPa 0,0 l/m 4,8 km/h N -6,3 C 9,3 C 16,1 km/h
03.03.2012 14:00 9,1 C 34 % 1026,1 hPa 0,0 l/m 4,9 km/h N -5,8 C 9,1 C 14,1 km/h
03.03.2012 15:00 8,9 C 36 % 1025,6 hPa 0,0 l/m 4,6 km/h N -5,5 C 8,9 C 11,3 km/h
03.03.2012 16:00 8,3 C 40 % 1025,4 hPa 0,0 l/m 4,2 km/h N -4,6 C 8,3 C 11,3 km/h
03.03.2012 17:00 7,0 C 41 % 1025,6 hPa 0,0 l/m 1,1 km/h N -5,3 C 7,0 C 6,8 km/h
03.03.2012 18:00 5,1 C 46 % 1026,1 hPa 0,0 l/m 0,0 km/h N -5,7 C 5,1 C 0,0 km/h
03.03.2012 19:00 2,7 C 55 % 1026,3 hPa 0,0 l/m 0,0 km/h N -5,5 C 2,7 C 0,0 km/h
03.03.2012 20:00 1,3 C 61 % 1026,3 hPa 0,0 l/m 0,1 km/h N -5,5 C 1,3 C 1,2 km/h
03.03.2012 21:00 0,2 C 64 % 1026,5 hPa 0,0 l/m 0,0 km/h N -5,7 C 0,2 C 1,6 km/h
03.03.2012 22:00 -0,7 C 69 % 1026,7 hPa 0,0 l/m 0,1 km/h N -5,7 C -0,7 C 2,0 km/h
03.03.2012 23:00 -0,6 C 69 % 1026,6 hPa 0,0 l/m 0,2 km/h N -5,7 C -0,6 C 2,4 km/h
04.03.2012 00:00 -1,1 C 70 % 1026,4 hPa 0,0 l/m 0,1 km/h N -5,8 C -1,1 C 1,6 km/h
04.03.2012 01:00 -1,4 C 73 % 1026,3 hPa 0,0 l/m 0,2 km/h N -5,5 C -1,4 C 3,6 km/h
04.03.2012 02:00 -1,1 C 74 % 1025,9 hPa 0,0 l/m 0,0 km/h N -5,2 C -1,1 C 1,2 km/h
04.03.2012 03:00 -1,2 C 73 % 1025,6 hPa 0,0 l/m 0,0 km/h N -5,4 C -1,2 C 0,0 km/h
04.03.2012 04:00 -2,2 C 75 % 1025,7 hPa 0,0 l/m 0,0 km/h N -6,1 C -2,2 C 0,0 km/h
04.03.2012 05:00 -2,5 C 76 % 1025,6 hPa 0,0 l/m 0,0 km/h N -6,1 C -2,5 C 0,4 km/h
04.03.2012 06:00 -2,5 C 77 % 1025,6 hPa 0,0 l/m 0,3 km/h N -6,1 C -2,5 C 2,4 km/h
04.03.2012 07:00 -1,9 C 76 % 1025,8 hPa 0,0 l/m 0,3 km/h N -5,5 C -1,9 C 2,4 km/h
04.03.2012 08:00 1,1 C 69 % 1025,8 hPa 0,0 l/m 2,5 km/h N -4,0 C 1,1 C 7,2 km/h
04.03.2012 09:00 3,4 C 58 % 1025,6 hPa 0,0 l/m 5,0 km/h N -4,2 C 3,4 C 10,5 km/h
04.03.2012 10:00 4,5 C 49 % 1025,4 hPa 0,0 l/m 5,4 km/h N -5,3 C 4,5 C 13,3 km/h
04.03.2012 11:00 6,1 C 43 % 1025,0 hPa 0,0 l/m 5,0 km/h N -5,7 C 6,1 C 12,1 km/h
04.03.2012 12:00 7,1 C 37 % 1024,2 hPa 0,0 l/m 3,5 km/h N -6,8 C 7,1 C 10,1 km/h
04.03.2012 13:00 8,1 C 30 % 1023,4 hPa 0,0 l/m 3,0 km/h N -8,6 C 8,1 C 10,9 km/h
04.03.2012 14:00 8,4 C 31 % 1022,7 hPa 0,0 l/m 1,9 km/h N -7,9 C 8,4 C 8,0 km/h
04.03.2012 15:00 8,6 C 31 % 1022,1 hPa 0,0 l/m 2,0 km/h N -7,8 C 8,6 C 8,0 km/h
04.03.2012 16:00 7,9 C 37 % 1021,8 hPa 0,0 l/m 0,2 km/h N -6,1 C 7,9 C 4,4 km/h
04.03.2012 17:00 6,8 C 41 % 1021,6 hPa 0,0 l/m 0,0 km/h N -5,5 C 6,8 C 0,4 km/h
04.03.2012 18:00 4,7 C 47 % 1021,7 hPa 0,0 l/m 0,0 km/h N -5,6 C 4,7 C 0,0 km/h
04.03.2012 19:00 2,9 C 56 % 1021,6 hPa 0,0 l/m 0,0 km/h N -4,9 C 2,9 C 0,0 km/h
04.03.2012 20:00 1,7 C 60 % 1021,3 hPa 0,0 l/m 0,0 km/h N -5,2 C 1,7 C 0,0 km/h
04.03.2012 21:00 0,6 C 64 % 1021,2 hPa 0,0 l/m 0,0 km/h N -5,4 C 0,6 C 0,0 km/h
04.03.2012 22:00 0,7 C 69 % 1020,9 hPa 0,0 l/m 0,0 km/h N -4,3 C 0,7 C 0,4 km/h
04.03.2012 23:00 1,1 C 69 % 1020,6 hPa 0,0 l/m 0,0 km/h N -4,1 C 1,1 C 0,0 km/h
Min-Datum _ 04.03.12 04.03.12 28.02.12 - 27.02.12 - 04.03.12 27.02.12 27.02.12
_ Min-Zeit 04:45 13:00 20:15 - 23:45 - 13:00 10:30 23:45
Minimum _ -2,6 C 28 % 1012,4 hPa - 0,0 km/h - -9,5 C -4,1 C 0,0 km/h
Max-Datum _ 02.03.12 01.03.12 03.03.12 28.02.12 28.02.12 - 01.03.12 01.03.12 29.02.12
_ Max-Zeit 14:15 04:15 09:00 17:45 20:00 - 12:45 16:00 00:30
Maximum _ 15,6 C 84 % 1028,0 hPa 2,9 l/m 33,2 km/h
N
- 8,7 C 14,9 C 69,2 km/h
N
Durchschnitt _ 6,7 C 69 % 1022,4 hPa #9,1 l/m 8,9 km/h N 1,0 C 4,3 C 19,8 km/h